Time;durP1;ratioP1;P1;durP2;ratioP2;P2;SDS_P1;SDS_P2;PMS_P1;PMS_P2;Temp;Humidity;BMP_temperature;BMP_pressure;BME280_temperature;BME280_humidity;BME280_pressure;Samples;Min_cycle;Max_cycle;Signal;HPM_P1;HPM_P2
2022/09/27 00:01:11;;;;;;;197.30;36.80;;;;;;;8.16;84.90;97598.73;89385;1277;25367;-74
2022/09/27 00:03:16;;;;;;;156.10;39.30;;;;;;;8.16;85.13;97596.85;89699;1274;22649;-74
2022/09/27 00:05:18;;;;;;;178.40;39.70;;;;;;;8.16;84.71;97594.91;89517;1277;98438;-74
2022/09/27 00:07:20;;;;;;;130.40;35.60;;;;;;;8.15;85.06;97594.61;89629;1274;22572;-73
2022/09/27 00:09:22;;;;;;;224.40;37.10;;;;;;;8.14;84.87;97588.04;89392;1277;22733;-73
2022/09/27 00:11:27;;;;;;;275.40;37.50;;;;;;;8.10;85.05;97590.52;89462;1274;98847;-74
2022/09/27 00:13:29;;;;;;;340.80;37.70;;;;;;;8.07;84.87;97591.06;89648;1274;23826;-74
2022/09/27 00:15:31;;;;;;;341.30;37.80;;;;;;;8.04;85.04;97589.67;89592;1274;22698;-74
2022/09/27 00:17:33;;;;;;;350.70;38.90;;;;;;;8.01;84.55;97589.65;89550;1277;97555;-75
2022/09/27 00:19:37;;;;;;;307.30;39.10;;;;;;;7.99;84.76;97587.66;89694;1274;22617;-74
2022/09/27 00:21:41;;;;;;;342.30;40.30;;;;;;;7.99;84.82;97586.48;89741;1274;22695;-74
2022/09/27 00:23:43;;;;;;;588.20;45.90;;;;;;;7.98;84.90;97581.59;89684;1277;22602;-73
2022/09/27 00:25:55;;;;;;;477.20;42.50;;;;;;;7.98;85.08;97578.66;89624;1274;22555;-72
2022/09/27 00:27:57;;;;;;;522.30;42.80;;;;;;;7.96;85.22;97582.95;89385;1279;99117;-74
2022/09/27 00:29:59;;;;;;;297.10;36.70;;;;;;;7.96;84.87;97576.66;89558;1277;22548;-72
2022/09/27 00:32:01;;;;;;;277.30;38.80;;;;;;;7.97;85.29;97573.48;89763;1274;22629;-74
2022/09/27 00:34:05;;;;;;;549.00;45.70;;;;;;;7.98;84.88;97572.33;89740;1274;99459;-74
2022/09/27 00:36:07;;;;;;;251.40;34.80;;;;;;;7.99;85.12;97573.70;89665;1277;22517;-74
2022/09/27 00:38:09;;;;;;;250.00;32.30;;;;;;;7.94;85.22;97569.42;89575;1277;23095;-75
2022/09/27 00:40:11;;;;;;;443.50;38.00;;;;;;;7.91;84.72;97566.17;89376;1277;98633;-73
2022/09/27 00:42:14;;;;;;;324.50;31.90;;;;;;;7.91;84.89;97560.56;89439;1274;26016;-74
2022/09/27 00:44:24;;;;;;;355.10;32.70;;;;;;;7.91;85.07;97553.91;89509;1277;22584;-72
2022/09/27 00:46:36;;;;;;;;;;;;;;;7.92;85.02;97554.02;89699;1274;98184;-73
2022/09/27 00:48:38;;;;;;;556.10;35.40;;;;;;;7.90;85.28;97552.20;89587;1274;22577;-74
2022/09/27 00:50:47;;;;;;;464.00;32.20;;;;;;;7.91;85.14;97550.92;89506;1274;22614;-74
2022/09/27 00:52:59;;;;;;;301.00;26.70;;;;;;;7.92;85.13;97548.41;89278;1277;98027;-71
2022/09/27 00:55:16;;;;;;;413.90;29.90;;;;;;;7.92;85.29;97544.38;89453;1274;22604;-73
2022/09/27 00:57:20;;;;;;;307.40;28.00;;;;;;;7.91;85.23;97541.14;89594;1274;22602;-74
2022/09/27 00:59:27;;;;;;;266.40;26.40;;;;;;;7.90;85.26;97539.47;89378;1277;98196;-74
2022/09/27 01:01:30;;;;;;;331.00;33.20;;;;;;;7.87;85.31;97534.02;89433;1277;25379;-71
2022/09/27 01:03:46;;;;;;;273.50;28.70;;;;;;;7.84;85.15;97533.50;89444;1274;23214;-73
2022/09/27 01:05:49;;;;;;;215.90;27.20;;;;;;;7.81;85.15;97528.42;89534;1274;24252;-73
2022/09/27 01:07:55;;;;;;;149.60;24.00;;;;;;;7.78;85.20;97527.20;89611;1274;22503;-73
2022/09/27 01:09:57;;;;;;;118.90;24.20;;;;;;;7.75;85.22;97523.88;89562;1274;98763;-74
2022/09/27 01:12:01;;;;;;;123.40;24.20;;;;;;;7.72;85.37;97521.51;89412;1274;25261;-74
2022/09/27 01:14:10;;;;;;;121.00;23.40;;;;;;;7.68;84.96;97522.59;89302;1274;23314;-74
2022/09/27 01:16:26;;;;;;;110.60;24.60;;;;;;;7.66;85.22;97521.82;89372;1274;98341;-72
2022/09/27 01:18:55;;;;;;;87.50;23.30;;;;;;;7.66;85.14;97525.31;89472;1274;22589;-72
2022/09/27 01:21:58;;;;;;;85.80;24.20;;;;;;;7.64;85.21;97524.73;89467;1274;22702;-75
2022/09/27 01:24:28;;;;;;;117.90;29.40;;;;;;;7.62;85.25;97519.74;88061;1290;22732;-73
2022/09/27 01:26:44;;;;;;;116.50;28.00;;;;;;;7.63;85.25;97511.34;88119;1290;22886;-75
2022/09/27 01:29:01;;;;;;;91.20;29.30;;;;;;;7.63;85.31;97507.27;88084;1290;98195;-74
2022/09/27 01:31:10;;;;;;;131.10;24.60;;;;;;;7.64;85.28;97506.89;88288;1290;22524;-73
2022/09/27 01:33:46;;;;;;;134.90;26.90;;;;;;;7.62;85.24;97500.69;88417;1290;22607;-74
2022/09/27 01:36:48;;;;;;;145.50;26.90;;;;;;;7.66;85.43;97497.50;88392;1291;22581;-74
2022/09/27 01:39:02;;;;;;;;;;;;;;;7.64;85.30;97496.94;87783;1297;25280;-74
2022/09/27 01:41:48;;;;;;;331.40;25.70;;;;;;;7.60;85.35;97495.92;87797;1297;85311;-74
2022/09/27 01:44:04;;;;;;;274.00;25.50;;;;;;;7.58;85.41;97493.09;87823;1297;25287;-73
2022/09/27 01:46:26;;;;;;;426.90;31.00;;;;;;;7.58;85.38;97492.90;87681;1297;98383;-74
2022/09/27 01:48:35;;;;;;;387.40;30.60;;;;;;;7.59;85.31;97489.91;87671;1297;23044;-73
2022/09/27 01:50:57;;;;;;;324.10;28.20;;;;;;;7.58;85.31;97487.67;87529;1300;22642;-74
2022/09/27 01:53:11;;;;;;;341.20;27.10;;;;;;;7.56;85.22;97484.66;87351;1300;98681;-72
2022/09/27 01:55:16;;;;;;;280.90;26.40;;;;;;;7.56;85.49;97483.63;87637;1297;23177;-73
2022/09/27 01:57:31;;;;;;;309.50;26.40;;;;;;;7.53;85.25;97482.73;87618;1300;22656;-73
2022/09/27 01:59:46;;;;;;;261.00;25.60;;;;;;;7.52;85.34;97475.97;87989;1293;98327;-73
2022/09/27 02:01:51;;;;;;;268.30;26.00;;;;;;;7.49;85.38;97474.76;88970;1282;23099;-73
2022/09/27 02:04:00;;;;;;;293.50;25.20;;;;;;;7.43;85.35;97471.23;88621;1285;98099;-74
2022/09/27 02:06:10;;;;;;;256.10;24.90;;;;;;;7.38;85.16;97468.79;88884;1282;22598;-75
2022/09/27 02:11:40;;;;;;;591.80;32.80;;;;;;;7.27;85.14;97454.91;89546;1274;99531;-73
2022/09/27 02:14:06;;;;;;;420.60;30.20;;;;;;;7.24;85.31;97452.64;89508;1274;24341;-74
2022/09/27 02:16:30;;;;;;;155.90;27.10;;;;;;;7.21;85.07;97453.70;89624;1274;98575;-73
2022/09/27 02:19:17;;;;;;;80.40;25.80;;;;;;;7.16;85.36;97451.55;89694;1274;25258;-73
2022/09/27 02:21:24;;;;;;;58.10;26.80;;;;;;;7.13;85.29;97456.23;89113;1280;22579;-73
2022/09/27 02:23:42;;;;;;;51.60;24.80;;;;;;;7.10;85.23;97456.27;88816;1283;99477;-73
2022/09/27 02:25:59;;;;;;;61.20;25.30;;;;;;;7.06;85.12;97460.31;88780;1283;22521;-73
2022/09/27 02:28:38;;;;;;;75.20;24.60;;;;;;;7.05;85.20;97459.03;88928;1283;98228;-73
2022/09/27 02:30:40;;;;;;;94.50;27.40;;;;;;;7.02;85.25;97454.84;88986;1280;22696;-71
2022/09/27 02:32:43;;;;;;;118.10;27.40;;;;;;;6.98;85.48;97449.10;89091;1281;26845;-73
2022/09/27 02:34:47;;;;;;;60.90;26.00;;;;;;;6.92;85.02;97444.88;88908;1281;97904;-73
2022/09/27 02:36:52;;;;;;;143.80;27.50;;;;;;;6.84;84.82;97446.06;88916;1282;22843;-73
2022/09/27 02:38:54;;;;;;;168.00;27.50;;;;;;;6.78;85.02;97443.98;89190;1282;22856;-74
2022/09/27 02:40:56;;;;;;;221.00;28.40;;;;;;;6.76;85.20;97444.58;88991;1280;98102;-73
2022/09/27 02:43:01;;;;;;;265.10;25.50;;;;;;;6.77;85.30;97448.54;89046;1280;23891;-73
2022/09/27 02:45:05;;;;;;;229.20;24.90;;;;;;;6.78;85.23;97447.63;88639;1284;22585;-73
2022/09/27 02:47:15;;;;;;;345.50;28.30;;;;;;;6.79;85.58;97450.55;88917;1280;98025;-70
2022/09/27 02:49:52;;;;;;;436.60;33.60;;;;;;;6.82;85.50;97448.61;88992;1280;24265;-73
2022/09/27 02:52:31;;;;;;;270.20;26.00;;;;;;;6.84;85.53;97450.05;88710;1280;98077;-73
2022/09/27 02:54:43;;;;;;;434.10;40.50;;;;;;;6.86;85.55;97444.20;89010;1280;22540;-73
2022/09/27 02:57:13;;;;;;;392.40;49.30;;;;;;;6.87;85.49;97441.69;89133;1281;22570;-73
2022/09/27 02:59:44;;;;;;;671.60;46.80;;;;;;;6.87;85.67;97438.02;89288;1274;98093;-73
2022/09/27 03:01:48;;;;;;;628.40;50.40;;;;;;;6.83;85.54;97439.67;88966;1281;22563;-73
2022/09/27 03:04:22;;;;;;;561.60;43.60;;;;;;;6.79;85.42;97433.45;88864;1281;98112;-74
2022/09/27 03:06:28;;;;;;;386.40;42.70;;;;;;;6.74;85.54;97427.98;88952;1281;24203;-74
2022/09/27 03:08:30;;;;;;;375.80;38.10;;;;;;;6.73;85.57;97427.34;88567;1282;23915;-73
2022/09/27 03:10:31;;;;;;;379.20;33.90;;;;;;;6.74;85.56;97425.89;88721;1283;99470;-73
2022/09/27 03:12:33;;;;;;;373.20;31.00;;;;;;;6.74;85.54;97420.47;89024;1280;22551;-74
2022/09/27 03:14:36;;;;;;;289.50;27.10;;;;;;;6.73;85.51;97418.27;88710;1284;23048;-72
2022/09/27 03:16:38;;;;;;;237.90;33.00;;;;;;;6.66;85.63;97413.93;88956;1281;98092;-73
2022/09/27 03:18:41;;;;;;;234.70;31.20;;;;;;;6.68;85.62;97424.48;88838;1281;22638;-73
2022/09/27 03:20:42;;;;;;;191.90;30.80;;;;;;;6.67;85.76;97431.66;88890;1283;22604;-73
2022/09/27 03:22:45;;;;;;;233.00;29.90;;;;;;;6.65;85.64;97433.88;88779;1283;98063;-73
2022/09/27 03:24:48;;;;;;;158.70;28.80;;;;;;;6.64;85.54;97434.25;88834;1283;22727;-73
2022/09/27 03:26:50;;;;;;;178.20;29.10;;;;;;;6.64;85.59;97437.79;88654;1284;22621;-73
2022/09/27 03:28:52;;;;;;;135.30;25.00;;;;;;;6.64;85.67;97436.34;88853;1280;99145;-72
2022/09/27 03:30:53;;;;;;;188.70;25.30;;;;;;;6.60;85.45;97433.30;88718;1283;22690;-73
2022/09/27 03:32:55;;;;;;;161.50;23.90;;;;;;;6.54;85.56;97428.38;88763;1282;22741;-73
2022/09/27 03:34:57;;;;;;;143.30;23.20;;;;;;;6.53;85.64;97428.11;88944;1281;99345;-74
2022/09/27 03:36:59;;;;;;;100.80;22.10;;;;;;;6.53;85.78;97428.27;88672;1284;22825;-74
2022/09/27 03:39:00;;;;;;;82.30;21.40;;;;;;;6.52;85.53;97426.40;89147;1275;22571;-72
2022/09/27 03:41:03;;;;;;;113.90;21.70;;;;;;;6.51;85.67;97421.77;89412;1274;97764;-73
2022/09/27 03:43:05;;;;;;;52.20;21.80;;;;;;;6.51;85.54;97419.86;89524;1274;22574;-74
2022/09/27 03:45:07;;;;;;;64.80;20.80;;;;;;;6.51;85.60;97417.93;89526;1274;22745;-74
2022/09/27 03:47:09;;;;;;;84.30;20.70;;;;;;;6.52;85.53;97414.76;89291;1274;97905;-76
2022/09/27 03:49:10;;;;;;;102.30;21.80;;;;;;;6.50;85.58;97410.64;89342;1274;24372;-73
2022/09/27 03:51:12;;;;;;;160.30;23.00;;;;;;;6.48;85.74;97405.13;89550;1274;23034;-73
2022/09/27 03:53:14;;;;;;;141.70;23.10;;;;;;;6.47;85.62;97399.83;89223;1278;98038;-73
2022/09/27 03:55:15;;;;;;;99.70;23.00;;;;;;;6.45;85.58;97402.55;89413;1274;22605;-73
2022/09/27 03:57:17;;;;;;;127.60;25.20;;;;;;;6.43;85.72;97399.36;89366;1274;22689;-73
2022/09/27 03:59:19;;;;;;;144.80;27.10;;;;;;;6.42;85.78;97392.75;89640;1276;99331;-73
2022/09/27 04:01:21;;;;;;;107.20;24.80;;;;;;;6.39;85.66;97387.86;89345;1274;24216;-72
2022/09/27 04:03:22;;;;;;;156.90;25.10;;;;;;;6.37;85.77;97389.59;89252;1277;22576;-72
2022/09/27 04:05:28;;;;;;;132.40;22.30;;;;;;;6.33;85.74;97390.52;89106;1277;98043;-73
2022/09/27 04:07:36;;;;;;;103.60;22.90;;;;;;;6.26;85.46;97390.02;89339;1274;22854;-72
2022/09/27 04:09:40;;;;;;;77.70;18.90;;;;;;;6.20;85.59;97392.80;89469;1274;22555;-73
2022/09/27 04:11:43;;;;;;;113.10;21.10;;;;;;;6.14;85.50;97396.26;89309;1274;98656;-73
2022/09/27 04:13:46;;;;;;;94.60;22.20;;;;;;;6.09;85.53;97393.38;89372;1274;22549;-73
2022/09/27 04:15:48;;;;;;;162.10;22.10;;;;;;;6.07;85.44;97386.20;89086;1277;97970;-73
2022/09/27 04:17:49;;;;;;;128.10;21.00;;;;;;;6.05;85.51;97392.21;89206;1274;25497;-73
2022/09/27 04:19:51;;;;;;;166.90;21.10;;;;;;;6.04;85.57;97398.07;89203;1274;22573;-72
2022/09/27 04:21:53;;;;;;;208.80;25.90;;;;;;;6.04;85.64;97404.00;89138;1274;99515;-73
2022/09/27 04:23:55;;;;;;;163.80;21.00;;;;;;;6.07;85.80;97400.34;89119;1274;22563;-72
2022/09/27 04:25:57;;;;;;;171.20;22.20;;;;;;;6.08;85.89;97386.80;89189;1274;22556;-70
2022/09/27 04:28:00;;;;;;;189.60;22.20;;;;;;;6.10;85.85;97380.59;88902;1276;99894;-71
2022/09/27 04:30:05;;;;;;;179.60;25.20;;;;;;;6.12;85.82;97375.14;89083;1277;22554;-73
2022/09/27 04:32:06;;;;;;;110.30;23.40;;;;;;;6.13;85.97;97376.98;89351;1274;22596;-74
2022/09/27 04:34:08;;;;;;;246.90;29.70;;;;;;;6.13;85.85;97378.71;88950;1274;98589;-75
2022/09/27 04:36:25;;;;;;;91.40;23.70;;;;;;;6.15;85.99;97380.32;89812;1274;22550;-74
2022/09/27 04:38:28;;;;;;;177.80;28.90;;;;;;;6.18;86.05;97382.95;90415;1274;22551;-75
2022/09/27 04:40:37;;;;;;;114.90;28.00;;;;;;;6.21;85.95;97386.14;90258;1277;98015;-75
2022/09/27 04:42:39;;;;;;;277.00;29.20;;;;;;;6.23;85.97;97374.14;90609;1274;22594;-77
2022/09/27 04:44:41;;;;;;;231.30;27.30;;;;;;;6.22;85.92;97372.95;90580;1277;22647;-76
2022/09/27 04:46:51;;;;;;;285.90;29.90;;;;;;;6.22;85.84;97372.64;90510;1274;97859;-74
2022/09/27 04:48:52;;;;;;;250.40;29.10;;;;;;;6.21;85.97;97378.42;90516;1274;22647;-74
2022/09/27 04:51:01;;;;;;;192.50;27.80;;;;;;;6.22;86.00;97386.08;90555;1274;22607;-74
2022/09/27 04:53:03;;;;;;;242.70;29.60;;;;;;;6.24;86.10;97389.07;90546;1275;97982;-74
2022/09/27 04:55:07;;;;;;;215.00;27.90;;;;;;;6.27;86.24;97391.89;90536;1277;22599;-75
2022/09/27 04:57:09;;;;;;;218.50;28.30;;;;;;;6.28;86.22;97391.09;90602;1274;22594;-74
2022/09/27 04:59:10;;;;;;;191.50;25.80;;;;;;;6.32;86.09;97391.08;90348;1277;98072;-74
2022/09/27 05:01:12;;;;;;;300.60;28.00;;;;;;;6.35;86.03;97388.86;90631;1274;22538;-74
2022/09/27 05:03:14;;;;;;;237.40;22.10;;;;;;;6.38;86.24;97389.71;90497;1277;23025;-74
2022/09/27 05:05:15;;;;;;;249.00;26.50;;;;;;;6.40;86.22;97386.08;90358;1276;98037;-75
2022/09/27 05:07:17;;;;;;;224.70;24.80;;;;;;;6.41;86.15;97386.53;90575;1274;22715;-74
2022/09/27 05:09:19;;;;;;;291.20;24.50;;;;;;;6.43;86.08;97378.97;90660;1274;22564;-75
2022/09/27 05:11:22;;;;;;;430.40;27.00;;;;;;;6.47;86.14;97374.89;90681;1277;98142;-76
2022/09/27 05:13:24;;;;;;;333.70;27.40;;;;;;;6.39;86.13;97356.50;90779;1277;22527;-73
2022/09/27 05:15:26;;;;;;;276.10;27.20;;;;;;;6.47;86.01;97366.83;90743;1274;22585;-76
2022/09/27 05:17:28;;;;;;;237.10;28.50;;;;;;;6.47;86.12;97369.46;90657;1276;98033;-75
2022/09/27 05:19:29;;;;;;;349.50;29.10;;;;;;;6.46;86.14;97371.95;90653;1274;22575;-75
2022/09/27 05:21:31;;;;;;;236.60;29.30;;;;;;;6.48;86.16;97375.00;90755;1274;23858;-76
2022/09/27 05:23:33;;;;;;;159.70;26.60;;;;;;;6.50;86.25;97365.09;90608;1273;98911;-75
2022/09/27 05:25:35;;;;;;;113.80;25.50;;;;;;;6.53;86.28;97354.45;90679;1274;23165;-76
2022/09/27 05:27:37;;;;;;;159.10;24.90;;;;;;;6.56;86.34;97352.39;90664;1277;22608;-75
2022/09/27 05:29:38;;;;;;;167.70;23.90;;;;;;;6.54;86.17;97346.90;90602;1277;99418;-76
2022/09/27 05:31:42;;;;;;;260.50;25.40;;;;;;;6.51;86.13;97350.40;90581;1277;22712;-75
2022/09/27 05:33:44;;;;;;;232.10;25.00;;;;;;;6.48;86.22;97350.95;90603;1277;24625;-76
2022/09/27 05:36:01;;;;;;;197.00;23.70;;;;;;;6.47;86.37;97352.70;90580;1277;98017;-74
2022/09/27 05:38:05;;;;;;;124.20;21.10;;;;;;;6.45;86.20;97350.40;90767;1274;22557;-75
2022/09/27 05:40:09;;;;;;;147.50;23.60;;;;;;;6.46;86.34;97351.00;90484;1274;97805;-76
2022/09/27 05:42:14;;;;;;;143.80;24.50;;;;;;;6.41;86.27;97341.36;90553;1277;22574;-76
2022/09/27 05:44:16;;;;;;;176.20;26.80;;;;;;;6.51;86.45;97347.09;90718;1274;22739;-75
2022/09/27 05:46:18;;;;;;;119.90;22.10;;;;;;;6.54;86.38;97344.42;90563;1275;97862;-76
2022/09/27 05:48:22;;;;;;;81.10;20.40;;;;;;;6.58;86.49;97344.38;90733;1275;23953;-76
2022/09/27 05:50:25;;;;;;;105.50;24.10;;;;;;;6.62;86.53;97340.66;90766;1277;22618;-77
2022/09/27 05:52:30;;;;;;;75.60;24.20;;;;;;;6.66;86.46;97343.23;90747;1274;97925;-76
2022/09/27 05:54:32;;;;;;;60.80;26.10;;;;;;;6.71;86.63;97341.22;90717;1277;23039;-75
2022/09/27 05:56:34;;;;;;;74.70;34.70;;;;;;;6.65;86.51;97327.43;90729;1277;22589;-75
2022/09/27 05:58:36;;;;;;;70.60;37.30;;;;;;;6.77;86.57;97340.84;90684;1276;98373;-76
2022/09/27 06:00:37;;;;;;;56.20;31.90;;;;;;;6.82;86.79;97333.21;90833;1274;22834;-75
2022/09/27 06:02:40;;;;;;;45.40;24.40;;;;;;;6.91;86.72;97330.80;90770;1274;22647;-76
2022/09/27 06:04:42;;;;;;;38.20;22.00;;;;;;;6.97;86.90;97331.79;90680;1274;98181;-75
2022/09/27 06:06:44;;;;;;;41.70;21.30;;;;;;;7.08;86.75;97331.50;90731;1274;22626;-75
2022/09/27 06:08:49;;;;;;;34.70;20.30;;;;;;;7.13;87.02;97331.02;90652;1274;22573;-75
2022/09/27 06:11:00;;;;;;;43.10;20.60;;;;;;;7.19;86.71;97327.36;90647;1274;97855;-75
2022/09/27 06:13:08;;;;;;;36.00;22.50;;;;;;;7.26;86.90;97324.62;90719;1277;22616;-76
2022/09/27 06:15:11;;;;;;;38.40;22.00;;;;;;;7.33;86.86;97328.05;90702;1277;22587;-76
2022/09/27 06:17:17;;;;;;;35.40;21.70;;;;;;;7.41;86.86;97331.06;90691;1274;97716;-75
2022/09/27 06:19:19;;;;;;;33.60;21.00;;;;;;;7.48;86.95;97332.53;90600;1277;23003;-76
2022/09/27 06:21:21;;;;;;;33.10;19.20;;;;;;;7.56;87.00;97335.02;90751;1275;22744;-76
2022/09/27 06:23:23;;;;;;;41.80;19.80;;;;;;;7.66;86.90;97340.16;90632;1271;97989;-76
2022/09/27 06:25:26;;;;;;;36.70;20.40;;;;;;;7.76;86.88;97342.17;90725;1274;22565;-76
2022/09/27 06:27:27;;;;;;;45.10;21.80;;;;;;;7.87;87.10;97341.34;90696;1274;22897;-76
2022/09/27 06:29:31;;;;;;;30.70;18.80;;;;;;;7.98;86.97;97341.85;90650;1271;98076;-76
2022/09/27 06:31:38;;;;;;;48.70;20.90;;;;;;;8.10;87.04;97343.04;90683;1272;22555;-75
2022/09/27 06:33:40;;;;;;;40.30;20.30;;;;;;;8.19;87.13;97343.48;90582;1271;221428;-76
2022/09/27 06:35:44;;;;;;;29.40;20.60;;;;;;;8.29;87.34;97342.98;90497;1273;97821;-75
2022/09/27 06:37:52;;;;;;;31.40;20.00;;;;;;;8.38;87.42;97342.26;90731;1272;24255;-75
2022/09/27 06:39:56;;;;;;;28.80;18.90;;;;;;;8.39;86.90;97332.89;90563;1272;97800;-77
2022/09/27 06:41:58;;;;;;;41.80;19.70;;;;;;;8.48;87.00;97338.09;90683;1271;22777;-74
2022/09/27 06:44:00;;;;;;;33.80;18.90;;;;;;;8.52;86.81;97338.18;90612;1274;22555;-75
2022/09/27 06:46:11;;;;;;;27.80;19.50;;;;;;;8.57;87.04;97340.48;90500;1274;98392;-76
2022/09/27 06:48:15;;;;;;;39.10;20.80;;;;;;;8.59;86.82;97342.30;90753;1271;22567;-75
2022/09/27 06:50:22;;;;;;;37.00;20.60;;;;;;;8.58;86.86;97329.36;90744;1271;22525;-75
2022/09/27 06:52:24;;;;;;;30.90;20.70;;;;;;;8.72;86.95;97342.16;90603;1274;97849;-76
2022/09/27 06:54:26;;;;;;;52.00;21.50;;;;;;;8.77;86.81;97343.20;90781;1271;22621;-74
2022/09/27 06:56:28;;;;;;;35.50;20.70;;;;;;;8.83;86.84;97342.30;90712;1271;22589;-75
2022/09/27 07:00:52;;;;;;;37.90;19.90;;;;;;;8.98;87.12;97339.54;90713;1271;22577;-76
2022/09/27 07:02:59;;;;;;;36.80;21.40;;;;;;;9.05;87.01;97341.66;90733;1271;22543;-75
2022/09/27 07:05:03;;;;;;;41.50;20.60;;;;;;;9.14;87.09;97344.75;90667;1270;97711;-75
2022/09/27 07:07:05;;;;;;;32.40;19.60;;;;;;;9.21;86.95;97338.34;90680;1274;22511;-76
2022/09/27 07:09:07;;;;;;;36.10;17.80;;;;;;;9.29;86.79;97344.19;90674;1271;22576;-75
2022/09/27 07:11:09;;;;;;;33.90;19.20;;;;;;;9.35;86.96;97338.91;90670;1271;97855;-76
2022/09/27 07:13:13;;;;;;;47.40;19.60;;;;;;;9.43;86.73;97337.69;90666;1273;22961;-76
2022/09/27 07:15:15;;;;;;;32.80;17.80;;;;;;;9.52;86.94;97340.03;90775;1271;22667;-77
2022/09/27 07:17:17;;;;;;;38.90;19.30;;;;;;;9.61;86.98;97333.94;90638;1271;98022;-77
2022/09/27 07:19:20;;;;;;;32.30;18.70;;;;;;;9.72;87.07;97331.61;90800;1271;22632;-77
2022/09/27 07:21:23;;;;;;;36.80;17.80;;;;;;;9.82;86.97;97329.48;90763;1273;22664;-76
2022/09/27 07:23:33;;;;;;;35.40;18.20;;;;;;;9.86;87.02;97317.98;90766;1271;98038;-75
2022/09/27 07:25:35;;;;;;;32.20;18.90;;;;;;;10.02;86.71;97325.74;90871;1271;22572;-76
2022/09/27 07:27:40;;;;;;;28.40;16.30;;;;;;;10.09;86.77;97328.10;90924;1271;22487;-76
2022/09/27 07:29:42;;;;;;;23.50;13.30;;;;;;;10.19;86.94;97328.41;90504;1274;98467;-76
2022/09/27 07:31:44;;;;;;;23.40;13.90;;;;;;;10.29;86.74;97327.66;90703;1273;22663;-76
2022/09/27 07:33:46;;;;;;;24.30;15.00;;;;;;;10.36;86.64;97324.55;90916;1271;22583;-76
2022/09/27 07:35:48;;;;;;;24.00;15.00;;;;;;;10.44;86.67;97322.23;90802;1271;97799;-76
2022/09/27 07:37:51;;;;;;;29.30;16.10;;;;;;;10.51;86.57;97319.77;90800;1274;22549;-76
2022/09/27 07:39:53;;;;;;;31.50;16.40;;;;;;;10.61;86.73;97317.77;90824;1274;22804;-74
2022/09/27 07:41:57;;;;;;;28.70;16.60;;;;;;;10.71;86.62;97311.08;90806;1271;22838;-75
2022/09/27 07:43:59;;;;;;;29.90;16.80;;;;;;;10.80;86.39;97315.70;90763;1274;22599;-78
2022/09/27 07:46:01;;;;;;;33.40;18.10;;;;;;;10.87;86.40;97314.92;90765;1273;98262;-77
2022/09/27 07:48:05;;;;;;;30.10;17.60;;;;;;;10.94;86.34;97314.77;90833;1273;22551;-76
2022/09/27 07:50:11;;;;;;;26.80;16.90;;;;;;;11.01;86.33;97316.34;90937;1271;22555;-74
2022/09/27 07:52:13;;;;;;;25.10;16.30;;;;;;;11.11;86.40;97313.27;90732;1271;98134;-75
2022/09/27 07:54:14;;;;;;;20.70;11.60;;;;;;;11.19;86.30;97299.70;90895;1274;22666;-75
2022/09/27 07:56:16;;;;;;;24.00;15.40;;;;;;;11.28;86.09;97305.88;90859;1271;22590;-75
2022/09/27 07:58:19;;;;;;;29.40;17.70;;;;;;;11.36;85.98;97304.70;90751;1274;97996;-76
2022/09/27 08:00:21;;;;;;;29.80;16.70;;;;;;;11.44;86.14;97310.23;90919;1271;22615;-76
2022/09/27 08:02:23;;;;;;;29.50;16.90;;;;;;;11.53;86.05;97309.37;90936;1271;22628;-76
2022/09/27 08:04:26;;;;;;;32.10;14.90;;;;;;;11.63;86.10;97307.86;90747;1271;97894;-76
2022/09/27 08:06:28;;;;;;;25.60;13.10;;;;;;;11.73;86.04;97302.84;90954;1271;22633;-76
2022/09/27 08:08:30;;;;;;;19.80;12.60;;;;;;;11.84;86.14;97299.66;90837;1274;22611;-76
2022/09/27 08:10:33;;;;;;;13.40;10.40;;;;;;;11.96;86.03;97305.08;90797;1271;97927;-76
2022/09/27 08:12:35;;;;;;;20.80;11.50;;;;;;;12.04;85.77;97304.44;90826;1274;22590;-77
2022/09/27 08:14:37;;;;;;;21.40;11.10;;;;;;;12.11;85.69;97310.59;90847;1271;22634;-77
2022/09/27 08:16:38;;;;;;;23.60;11.30;;;;;;;12.17;85.74;97309.37;90756;1274;98451;-77
2022/09/27 08:18:40;;;;;;;19.20;12.40;;;;;;;12.21;85.35;97305.56;90952;1271;22568;-75
2022/09/27 08:20:42;;;;;;;18.50;11.40;;;;;;;12.29;85.50;97303.52;90903;1271;22540;-77
2022/09/27 08:22:46;;;;;;;23.10;11.80;;;;;;;12.38;85.54;97301.15;90847;1271;97910;-77
2022/09/27 08:24:48;;;;;;;23.40;12.00;;;;;;;12.46;85.56;97300.11;90940;1273;25410;-77
2022/09/27 08:26:49;;;;;;;24.40;10.80;;;;;;;12.55;85.23;97298.55;90901;1273;23087;-76
2022/09/27 08:28:54;;;;;;;23.60;11.50;;;;;;;12.65;85.23;97300.50;90868;1273;98511;-76
2022/09/27 08:30:58;;;;;;;20.30;10.30;;;;;;;12.77;85.34;97300.96;90905;1272;22545;-75
2022/09/27 08:33:02;;;;;;;17.30;11.50;;;;;;;12.89;85.15;97298.84;90846;1271;23050;-78
2022/09/27 08:35:06;;;;;;;17.40;11.20;;;;;;;13.00;84.98;97294.94;90828;1271;98459;-77
2022/09/27 08:37:19;;;;;;;18.20;10.50;;;;;;;13.08;84.51;97292.11;91016;1271;22897;-77
2022/09/27 08:39:21;;;;;;;29.40;13.10;;;;;;;13.15;84.72;97292.80;90886;1275;22675;-76
2022/09/27 08:42:13;;;;;;;19.40;11.00;;;;;;;13.23;84.82;97290.54;90822;1274;98161;-77
2022/09/27 08:44:52;;;;;;;23.90;11.30;;;;;;;13.31;84.70;97290.52;90563;1279;22722;-76
2022/09/27 08:47:34;;;;;;;;;;;;;;;;;;;;;
2022/09/27 08:50:48;;;;;;;15.60;12.70;;;;;;;13.45;84.63;97291.67;88709;1271;24288;-74
2022/09/27 08:53:52;;;;;;;23.80;14.20;;;;;;;13.60;84.44;97292.24;89016;1272;97862;-79
2022/09/27 08:56:55;;;;;;;22.50;13.50;;;;;;;13.66;84.20;97289.30;88119;1287;26647;-76
2022/09/27 08:59:35;;;;;;;27.50;13.80;;;;;;;13.73;84.10;97283.03;87222;1294;99305;-76
2022/09/27 09:01:46;;;;;;;21.30;14.40;;;;;;;13.75;84.06;97277.15;86933;1300;25425;-77
2022/09/27 09:04:30;;;;;;;26.70;15.80;;;;;;;13.82;84.05;97272.18;86764;1302;22766;-76
2022/09/27 09:14:19;;;;;;;16.80;11.20;;;;;;;14.22;83.86;97268.92;86013;1311;25832;-76
2022/09/27 09:17:22;;;;;;;25.00;12.40;;;;;;;14.31;83.63;97265.11;85983;1314;99416;-77
2022/09/27 09:20:31;;;;;;;;;;;;;;;;;;;;;
2022/09/27 09:23:42;;;;;;;;;;;;;;;;;;;;;
2022/09/27 09:26:53;;;;;;;34.70;11.80;;;;;;;14.57;83.18;97252.48;85707;1317;24353;-76
2022/09/27 09:30:13;;;;;;;22.00;12.60;;;;;;;14.76;83.11;97245.16;85747;1317;99148;-76
2022/09/27 09:33:21;;;;;;;21.10;12.30;;;;;;;14.98;83.05;97231.41;85766;1315;24470;-75
2022/09/27 09:36:33;;;;;;;26.80;14.70;;;;;;;15.14;82.97;97234.67;86001;1306;97958;-76
2022/09/27 09:39:37;;;;;;;23.90;13.50;;;;;;;15.33;82.67;97228.48;86589;1297;22625;-75
2022/09/27 09:42:53;;;;;;;28.90;12.90;;;;;;;15.45;82.49;97214.88;86926;1297;99268;-76
2022/09/27 09:45:56;;;;;;;19.50;11.60;;;;;;;15.50;82.07;97211.02;87046;1294;22627;-75
2022/09/27 09:49:05;;;;;;;;;;;;;;;;;;;;;
2022/09/27 09:52:18;;;;;;;19.70;11.80;;;;;;;15.85;81.96;97210.39;86958;1294;22740;-77
2022/09/27 09:58:22;;;;;;;29.60;14.10;;;;;;;16.21;81.55;97203.31;87312;1290;22594;-76
2022/09/27 10:01:25;;;;;;;26.00;12.90;;;;;;;16.43;81.58;97200.26;87242;1290;97990;-74
2022/09/27 10:04:17;;;;;;;32.80;14.50;;;;;;;16.61;81.17;97198.05;87370;1290;22742;-76
2022/09/27 10:07:12;;;;;;;26.90;15.40;;;;;;;16.86;81.27;97193.71;86829;1297;97984;-76
2022/09/27 10:09:51;;;;;;;;;;;;;;;;;;;;;
2022/09/27 10:12:55;;;;;;;21.50;13.90;;;;;;;17.33;81.10;97173.48;87236;1290;98067;-76
2022/09/27 10:15:58;;;;;;;21.40;13.70;;;;;;;17.50;80.24;97171.05;87416;1290;23594;-75
2022/09/27 10:18:29;;;;;;;20.60;11.00;;;;;;;17.64;80.11;97167.23;87442;1290;100081;-75
2022/09/27 10:20:44;;;;;;;15.30;11.00;;;;;;;17.67;79.96;97163.36;87519;1293;22748;-77
2022/09/27 10:23:36;;;;;;;22.70;11.40;;;;;;;17.69;79.81;97165.66;87653;1290;23526;-76
2022/09/27 10:26:56;;;;;;;19.40;11.10;;;;;;;17.81;79.85;97162.05;87930;1281;22711;-76
2022/09/27 10:30:14;;;;;;;25.70;10.90;;;;;;;17.74;79.58;97158.55;87776;1288;22854;-76
2022/09/27 10:33:22;;;;;;;19.30;9.50;;;;;;;17.78;79.77;97154.48;87323;1297;22707;-80
2022/09/27 10:36:33;;;;;;;13.70;10.70;;;;;;;17.81;79.06;97156.02;86886;1294;100773;-77